Time;durP1;ratioP1;P1;durP2;ratioP2;P2;SDS_P1;SDS_P2;PMS_P1;PMS_P2;Temp;Humidity;BMP_temperature;BMP_pressure;BME280_temperature;BME280_humidity;BME280_pressure;Samples;Min_cycle;Max_cycle;Signal;HPM_P1;HPM_P2
2024/03/01 00:01:36;;;;;;;25.10;11.50;;;;;;;;;;5114203;28;20050;-66
2024/03/01 00:04:01;;;;;;;21.58;11.15;;;;;;;;;;5116474;28;20020;-64
2024/03/01 00:06:26;;;;;;;24.70;11.65;;;;;;;;;;5116547;28;20366;-67
2024/03/01 00:08:52;;;;;;;20.98;10.88;;;;;;;;;;5113268;28;20022;-66
2024/03/01 00:11:17;;;;;;;24.38;11.85;;;;;;;;;;5095199;28;20028;-65
2024/03/01 00:13:42;;;;;;;25.65;12.07;;;;;;;;;;5095875;28;20040;-65
2024/03/01 00:16:08;;;;;;;20.95;11.65;;;;;;;;;;5102754;28;20030;-66
2024/03/01 00:18:34;;;;;;;22.27;11.60;;;;;;;;;;5113531;28;20031;-66
2024/03/01 00:20:59;;;;;;;25.85;12.35;;;;;;;;;;5115850;28;20035;-66
2024/03/01 00:23:26;;;;;;;24.33;11.77;;;;;;;;;;5114337;28;20495;-66
2024/03/01 00:25:53;;;;;;;22.02;11.48;;;;;;;;;;5115982;28;20027;-65
2024/03/01 00:28:18;;;;;;;23.85;11.18;;;;;;;;;;5115565;28;20024;-65
2024/03/01 00:30:44;;;;;;;20.23;11.02;;;;;;;;;;5115247;28;20536;-66
2024/03/01 00:33:09;;;;;;;17.45;11.18;;;;;;;;;;5112946;28;20046;-66
2024/03/01 00:35:35;;;;;;;22.92;10.70;;;;;;;;;;5104728;28;20401;-67
2024/03/01 00:38:00;;;;;;;23.25;11.65;;;;;;;;;;5094706;28;20048;-64
2024/03/01 00:40:26;;;;;;;21.08;11.15;;;;;;;;;;5093892;28;20024;-66
2024/03/01 00:42:51;;;;;;;20.25;11.02;;;;;;;;;;5095244;28;20031;-65
2024/03/01 00:45:17;;;;;;;23.23;11.70;;;;;;;;;;5095034;28;20057;-65
2024/03/01 00:47:46;;;;;;;23.70;11.52;;;;;;;;;;5094621;28;20424;-64
2024/03/01 00:50:11;;;;;;;23.02;12.15;;;;;;;;;;5095315;28;20082;-65
2024/03/01 00:52:37;;;;;;;21.77;11.90;;;;;;;;;;5094167;28;20052;-64
2024/03/01 00:55:03;;;;;;;24.65;11.75;;;;;;;;;;5095520;28;20028;-62
2024/03/01 00:57:29;;;;;;;25.52;11.35;;;;;;;;;;5095005;28;20020;-65
2024/03/01 00:59:54;;;;;;;26.42;12.30;;;;;;;;;;5094249;28;20509;-64
2024/03/01 01:02:20;;;;;;;25.88;12.35;;;;;;;;;;5095606;28;20020;-65
2024/03/01 01:04:46;;;;;;;21.38;12.35;;;;;;;;;;5111735;28;20023;-64
2024/03/01 01:07:11;;;;;;;17.95;11.85;;;;;;;;;;5114707;28;20078;-65
2024/03/01 01:09:37;;;;;;;25.58;13.10;;;;;;;;;;5113178;28;20080;-64
2024/03/01 01:12:02;;;;;;;27.13;14.10;;;;;;;;;;5114650;28;20172;-64
2024/03/01 01:14:28;;;;;;;23.48;13.27;;;;;;;;;;5112661;28;20085;-65
2024/03/01 01:16:53;;;;;;;23.92;13.32;;;;;;;;;;5115136;28;20016;-64
2024/03/01 01:19:19;;;;;;;28.90;13.95;;;;;;;;;;5094216;28;20440;-64
2024/03/01 01:21:44;;;;;;;24.45;13.88;;;;;;;;;;5093954;28;20020;-64
2024/03/01 01:24:09;;;;;;;26.73;13.88;;;;;;;;;;5094396;28;20361;-65
2024/03/01 01:26:35;;;;;;;28.38;14.07;;;;;;;;;;5094033;28;20016;-64
2024/03/01 01:29:02;;;;;;;23.90;13.68;;;;;;;;;;5093965;28;20482;-64
2024/03/01 01:31:28;;;;;;;29.23;14.63;;;;;;;;;;5092974;28;20423;-64
2024/03/01 01:33:53;;;;;;;28.30;14.30;;;;;;;;;;5095110;28;20043;-65
2024/03/01 01:36:18;;;;;;;26.42;14.48;;;;;;;;;;5093578;28;20074;-64
2024/03/01 01:38:44;;;;;;;26.92;14.40;;;;;;;;;;5093527;28;20284;-65
2024/03/01 01:41:09;;;;;;;29.08;14.25;;;;;;;;;;5096659;28;20020;-64
2024/03/01 01:43:37;;;;;;;26.23;14.57;;;;;;;;;;5114437;28;20031;-64
2024/03/01 01:46:03;;;;;;;26.65;14.30;;;;;;;;;;5113983;28;20083;-65
2024/03/01 01:48:29;;;;;;;24.00;13.88;;;;;;;;;;5100736;28;20331;-66
2024/03/01 01:50:56;;;;;;;25.20;12.90;;;;;;;;;;5093730;28;20038;-65
2024/03/01 01:53:21;;;;;;;24.88;13.68;;;;;;;;;;5106283;28;20035;-64
2024/03/01 01:55:47;;;;;;;22.23;12.75;;;;;;;;;;5104852;28;20081;-65
2024/03/01 01:58:12;;;;;;;25.55;13.60;;;;;;;;;;5110034;28;20455;-64
2024/03/01 02:00:38;;;;;;;26.05;12.93;;;;;;;;;;5094908;28;20020;-66
2024/03/01 02:03:03;;;;;;;20.15;12.57;;;;;;;;;;5093580;28;20403;-64
2024/03/01 02:05:29;;;;;;;22.02;12.70;;;;;;;;;;5093903;28;20474;-64
2024/03/01 02:07:54;;;;;;;25.00;12.98;;;;;;;;;;5093431;28;20039;-64
2024/03/01 02:10:20;;;;;;;24.90;13.27;;;;;;;;;;5093551;28;20523;-64
2024/03/01 02:12:56;;;;;;;22.60;13.82;;;;;;;;;;5093575;28;20047;-64
2024/03/01 02:15:24;;;;;;;25.75;13.82;;;;;;;;;;5072555;28;20017;-64
2024/03/01 02:17:50;;;;;;;22.40;13.10;;;;;;;;;;5081787;28;20120;-65
2024/03/01 02:20:16;;;;;;;27.05;14.27;;;;;;;;;;5093370;28;20083;-64
2024/03/01 02:22:46;;;;;;;23.00;13.23;;;;;;;;;;5093073;28;20035;-64
2024/03/01 02:25:11;;;;;;;22.92;13.50;;;;;;;;;;5092690;28;20499;-64
2024/03/01 02:27:37;;;;;;;22.13;13.70;;;;;;;;;;5094252;28;20107;-65
2024/03/01 02:30:02;;;;;;;25.35;14.15;;;;;;;;;;5093296;28;20107;-63
2024/03/01 02:32:29;;;;;;;24.80;14.57;;;;;;;;;;5092920;28;20071;-64
2024/03/01 02:34:54;;;;;;;26.70;13.80;;;;;;;;;;5091693;28;20022;-65
2024/03/01 02:37:20;;;;;;;27.70;14.70;;;;;;;;;;5095469;28;20097;-66
2024/03/01 02:39:45;;;;;;;25.77;14.60;;;;;;;;;;5113566;28;20024;-66
2024/03/01 02:42:11;;;;;;;27.20;14.32;;;;;;;;;;5112218;28;20327;-65
2024/03/01 02:44:36;;;;;;;25.27;14.40;;;;;;;;;;5096443;28;20016;-63
2024/03/01 02:47:02;;;;;;;28.45;14.77;;;;;;;;;;5092540;28;20028;-65
2024/03/01 02:49:27;;;;;;;29.75;14.75;;;;;;;;;;5092291;28;20028;-66
2024/03/01 02:51:53;;;;;;;24.05;14.00;;;;;;;;;;5093570;28;20084;-65
2024/03/01 02:54:18;;;;;;;22.83;13.40;;;;;;;;;;5092516;28;20031;-64
2024/03/01 02:56:44;;;;;;;24.88;14.25;;;;;;;;;;5094240;28;20016;-65
2024/03/01 02:59:10;;;;;;;25.30;14.73;;;;;;;;;;5112658;28;20063;-63
2024/03/01 03:01:35;;;;;;;29.35;14.20;;;;;;;;;;5112916;28;20016;-68
2024/03/01 03:04:01;;;;;;;25.92;13.82;;;;;;;;;;5112722;28;20192;-68
2024/03/01 03:06:26;;;;;;;30.17;14.48;;;;;;;;;;5111025;28;20054;-68
2024/03/01 03:08:52;;;;;;;24.58;14.27;;;;;;;;;;5112444;28;20023;-67
2024/03/01 03:11:20;;;;;;;24.88;14.80;;;;;;;;;;5112787;28;20027;-67
2024/03/01 03:13:46;;;;;;;26.27;14.50;;;;;;;;;;5112561;28;20465;-67
2024/03/01 03:16:11;;;;;;;23.70;14.55;;;;;;;;;;5110580;28;20023;-67
2024/03/01 03:18:37;;;;;;;28.58;14.68;;;;;;;;;;5113013;28;20023;-65
2024/03/01 03:21:02;;;;;;;31.00;15.60;;;;;;;;;;5112767;28;20038;-64
2024/03/01 03:23:28;;;;;;;30.92;14.50;;;;;;;;;;5112489;28;20024;-65
2024/03/01 03:25:54;;;;;;;27.88;14.27;;;;;;;;;;5112553;28;20059;-64
2024/03/01 03:28:21;;;;;;;28.58;13.93;;;;;;;;;;5112977;28;20031;-64
2024/03/01 03:30:47;;;;;;;23.70;13.63;;;;;;;;;;5103290;28;20012;-66
2024/03/01 03:33:12;;;;;;;25.02;13.60;;;;;;;;;;5091994;28;20316;-64
2024/03/01 03:35:38;;;;;;;28.92;14.80;;;;;;;;;;5105466;28;20062;-64
2024/03/01 03:38:03;;;;;;;22.02;14.32;;;;;;;;;;5111066;28;20419;-64
2024/03/01 03:40:29;;;;;;;25.05;14.13;;;;;;;;;;5112057;28;20023;-64
2024/03/01 03:42:54;;;;;;;23.63;14.82;;;;;;;;;;5112287;28;20016;-63
2024/03/01 03:45:19;;;;;;;26.92;15.50;;;;;;;;;;5112900;28;20366;-65
2024/03/01 03:47:45;;;;;;;30.55;15.80;;;;;;;;;;5112567;28;20031;-64
2024/03/01 03:50:10;;;;;;;25.55;16.15;;;;;;;;;;5110770;28;20031;-65
2024/03/01 03:52:36;;;;;;;28.67;15.75;;;;;;;;;;5112103;28;20086;-64
2024/03/01 03:55:06;;;;;;;26.30;15.63;;;;;;;;;;5110870;28;20043;-63
2024/03/01 03:57:34;;;;;;;32.80;16.40;;;;;;;;;;5112547;28;20047;-65
2024/03/01 04:00:01;;;;;;;32.60;16.92;;;;;;;;;;5111939;28;20077;-67
2024/03/01 04:02:26;;;;;;;26.55;16.85;;;;;;;;;;5101947;28;20039;-65
2024/03/01 04:04:52;;;;;;;29.27;16.92;;;;;;;;;;5093315;28;20024;-65
2024/03/01 04:07:17;;;;;;;30.25;17.65;;;;;;;;;;5092101;28;20346;-65
2024/03/01 04:09:42;;;;;;;31.30;17.13;;;;;;;;;;5091891;28;20024;-63
2024/03/01 04:12:09;;;;;;;26.75;16.60;;;;;;;;;;5093339;28;20036;-64
2024/03/01 04:14:34;;;;;;;30.95;17.45;;;;;;;;;;5096994;28;20028;-63
2024/03/01 04:17:00;;;;;;;27.60;18.10;;;;;;;;;;5095853;28;20024;-62
2024/03/01 04:19:25;;;;;;;30.15;17.55;;;;;;;;;;5094992;28;20024;-65
2024/03/01 04:21:53;;;;;;;28.45;16.92;;;;;;;;;;5095007;28;20020;-64
2024/03/01 04:24:19;;;;;;;31.13;17.25;;;;;;;;;;5095561;28;20086;-64
2024/03/01 04:26:44;;;;;;;34.53;18.10;;;;;;;;;;5112082;28;20449;-64
2024/03/01 04:29:10;;;;;;;26.90;16.92;;;;;;;;;;5113996;28;20018;-64
2024/03/01 04:31:35;;;;;;;32.67;17.75;;;;;;;;;;5115400;28;20099;-64
2024/03/01 04:34:04;;;;;;;28.30;17.67;;;;;;;;;;5099922;28;20068;-64
2024/03/01 04:36:29;;;;;;;28.85;16.92;;;;;;;;;;5094889;28;20042;-63
2024/03/01 04:38:55;;;;;;;31.77;17.73;;;;;;;;;;5094651;28;20028;-63
2024/03/01 04:41:20;;;;;;;33.67;18.55;;;;;;;;;;5094582;28;20013;-63
2024/03/01 04:43:46;;;;;;;32.20;18.33;;;;;;;;;;5094633;28;20020;-64
2024/03/01 04:46:12;;;;;;;30.33;18.45;;;;;;;;;;5094910;28;20073;-64
2024/03/01 04:48:37;;;;;;;29.48;18.17;;;;;;;;;;5104156;28;20061;-66
2024/03/01 04:51:08;;;;;;;29.38;17.63;;;;;;;;;;5114673;28;20046;-65
2024/03/01 04:53:34;;;;;;;29.38;18.25;;;;;;;;;;5099219;28;20051;-65
2024/03/01 04:55:59;;;;;;;32.60;17.52;;;;;;;;;;5094345;28;20032;-65
2024/03/01 04:58:25;;;;;;;34.35;19.42;;;;;;;;;;5094627;28;20024;-64
2024/03/01 05:00:50;;;;;;;29.83;17.65;;;;;;;;;;5095924;28;20077;-66
2024/03/01 05:03:15;;;;;;;26.25;18.05;;;;;;;;;;5095560;28;20058;-63
2024/03/01 05:05:41;;;;;;;34.33;18.85;;;;;;;;;;5094740;28;20027;-65
2024/03/01 05:08:09;;;;;;;27.05;17.40;;;;;;;;;;5094707;28;20020;-65
2024/03/01 05:10:34;;;;;;;37.95;18.90;;;;;;;;;;5094976;28;20069;-63
2024/03/01 05:13:00;;;;;;;33.17;18.40;;;;;;;;;;5110591;28;20388;-65
2024/03/01 05:15:25;;;;;;;26.48;17.92;;;;;;;;;;5114141;28;20050;-65
2024/03/01 05:17:50;;;;;;;34.95;18.55;;;;;;;;;;5113348;28;20043;-66
2024/03/01 05:20:16;;;;;;;27.65;17.58;;;;;;;;;;5114667;28;20027;-64
2024/03/01 05:22:42;;;;;;;30.08;17.45;;;;;;;;;;5114266;28;20023;-65
2024/03/01 05:25:15;;;;;;;28.17;17.17;;;;;;;;;;5114692;27;20028;-64
2024/03/01 05:27:45;;;;;;;31.13;18.23;;;;;;;;;;5114071;28;20046;-65
2024/03/01 05:30:16;;;;;;;35.17;18.02;;;;;;;;;;5112297;28;20067;-64
2024/03/01 05:32:42;;;;;;;30.15;18.00;;;;;;;;;;5096435;28;20165;-63
2024/03/01 05:35:08;;;;;;;32.45;17.90;;;;;;;;;;5093850;28;20244;-64
2024/03/01 05:37:34;;;;;;;34.55;18.20;;;;;;;;;;5093630;28;20435;-63
2024/03/01 05:40:01;;;;;;;30.95;17.10;;;;;;;;;;5094477;28;20035;-65
2024/03/01 05:42:26;;;;;;;33.15;17.55;;;;;;;;;;5096994;28;20587;-67
2024/03/01 05:44:51;;;;;;;36.00;17.23;;;;;;;;;;5094039;28;20106;-65
2024/03/01 05:47:18;;;;;;;34.65;18.13;;;;;;;;;;5109460;28;20099;-66
2024/03/01 05:49:44;;;;;;;30.80;17.65;;;;;;;;;;5112405;28;20149;-63
2024/03/01 05:52:10;;;;;;;32.38;17.45;;;;;;;;;;5096410;28;20087;-61
2024/03/01 05:54:35;;;;;;;39.25;17.88;;;;;;;;;;5099522;28;20031;-62
2024/03/01 05:57:01;;;;;;;35.67;17.90;;;;;;;;;;5113485;28;20024;-63
2024/03/01 05:59:26;;;;;;;38.17;18.48;;;;;;;;;;5113620;28;20102;-62
2024/03/01 06:01:53;;;;;;;37.70;17.83;;;;;;;;;;5097340;28;20028;-61
2024/03/01 06:04:19;;;;;;;41.03;19.60;;;;;;;;;;5107375;28;20023;-63
2024/03/01 06:06:45;;;;;;;35.28;18.25;;;;;;;;;;5113592;27;20024;-62
2024/03/01 06:09:11;;;;;;;39.90;18.88;;;;;;;;;;5111951;28;20092;-63
2024/03/01 06:11:36;;;;;;;40.25;19.80;;;;;;;;;;5113991;28;20054;-58
2024/03/01 06:14:02;;;;;;;40.80;19.40;;;;;;;;;;5113453;28;20446;-59
2024/03/01 06:16:28;;;;;;;39.33;21.00;;;;;;;;;;5113170;28;20424;-59
2024/03/01 06:18:54;;;;;;;48.03;25.50;;;;;;;;;;5098919;28;20059;-61
2024/03/01 06:21:20;;;;;;;44.10;23.65;;;;;;;;;;5093610;28;20055;-62
2024/03/01 06:23:45;;;;;;;44.30;22.52;;;;;;;;;;5093144;28;20030;-59
2024/03/01 06:26:11;;;;;;;46.20;22.85;;;;;;;;;;5093736;28;20032;-57
2024/03/01 06:28:38;;;;;;;48.65;22.88;;;;;;;;;;5093393;28;20471;-63
2024/03/01 06:31:03;;;;;;;46.30;22.50;;;;;;;;;;5093323;28;20084;-66
2024/03/01 06:33:29;;;;;;;45.47;21.92;;;;;;;;;;5091875;28;20173;-69
2024/03/01 06:35:54;;;;;;;44.78;22.00;;;;;;;;;;5073758;28;20115;-63
2024/03/01 06:38:20;;;;;;;43.95;20.83;;;;;;;;;;5096368;28;20444;-63
2024/03/01 06:40:45;;;;;;;41.70;19.58;;;;;;;;;;5092724;28;20475;-63
2024/03/01 06:43:10;;;;;;;40.20;19.33;;;;;;;;;;5092554;28;20027;-61
2024/03/01 06:45:36;;;;;;;45.70;20.05;;;;;;;;;;5092341;28;20353;-62
2024/03/01 06:48:01;;;;;;;40.80;19.70;;;;;;;;;;5092728;28;20024;-63
2024/03/01 06:50:26;;;;;;;38.03;18.30;;;;;;;;;;5092528;28;20107;-63
2024/03/01 06:52:53;;;;;;;39.83;18.25;;;;;;;;;;5092579;28;20451;-62
2024/03/01 06:55:20;;;;;;;40.45;17.95;;;;;;;;;;5092288;28;20044;-61
2024/03/01 06:57:46;;;;;;;37.78;18.15;;;;;;;;;;5092318;28;20046;-62
2024/03/01 07:00:12;;;;;;;35.55;17.45;;;;;;;;;;5091346;28;20038;-61
2024/03/01 07:02:37;;;;;;;38.00;17.45;;;;;;;;;;5091864;28;20024;-63
2024/03/01 07:05:03;;;;;;;35.50;16.02;;;;;;;;;;5092151;28;20102;-62
2024/03/01 07:07:30;;;;;;;32.05;15.77;;;;;;;;;;5103901;28;20028;-63
2024/03/01 07:09:55;;;;;;;34.08;16.98;;;;;;;;;;5098997;28;20519;-63
2024/03/01 07:12:21;;;;;;;37.88;16.65;;;;;;;;;;5092608;28;20040;-62
2024/03/01 07:14:46;;;;;;;33.30;16.85;;;;;;;;;;5091196;28;20012;-62
2024/03/01 07:17:11;;;;;;;37.67;17.60;;;;;;;;;;5092255;28;20148;-61
2024/03/01 07:19:37;;;;;;;32.95;17.17;;;;;;;;;;5092419;28;20048;-63
2024/03/01 07:22:02;;;;;;;34.38;17.27;;;;;;;;;;5092062;28;20107;-61
2024/03/01 07:24:28;;;;;;;34.75;16.92;;;;;;;;;;5091036;28;20442;-64
2024/03/01 07:26:53;;;;;;;37.92;18.30;;;;;;;;;;5092779;28;20032;-63
2024/03/01 07:29:18;;;;;;;37.78;18.23;;;;;;;;;;5092405;28;20111;-62
2024/03/01 07:31:44;;;;;;;37.17;18.20;;;;;;;;;;5092102;28;20167;-63
2024/03/01 07:34:09;;;;;;;29.00;16.30;;;;;;;;;;5092005;28;20043;-63
2024/03/01 07:36:34;;;;;;;34.80;17.83;;;;;;;;;;5092636;28;20020;-64
2024/03/01 07:39:00;;;;;;;42.97;20.30;;;;;;;;;;5092486;28;20381;-61
2024/03/01 07:41:25;;;;;;;33.53;19.90;;;;;;;;;;5091643;28;20035;-63
2024/03/01 07:43:52;;;;;;;38.97;19.55;;;;;;;;;;5092274;28;20351;-62
2024/03/01 07:46:17;;;;;;;40.30;19.45;;;;;;;;;;5094583;28;20020;-63
2024/03/01 07:48:44;;;;;;;34.50;19.13;;;;;;;;;;5095829;28;20081;-62
2024/03/01 07:51:10;;;;;;;34.03;17.67;;;;;;;;;;5095375;28;20125;-64
2024/03/01 07:53:35;;;;;;;40.05;18.90;;;;;;;;;;5095517;28;20044;-62
2024/03/01 07:56:00;;;;;;;35.35;17.42;;;;;;;;;;5096269;28;20520;-65
2024/03/01 07:58:26;;;;;;;35.13;16.88;;;;;;;;;;5096140;28;20059;-63
2024/03/01 08:00:51;;;;;;;31.02;17.02;;;;;;;;;;5095916;28;20320;-63
2024/03/01 08:03:17;;;;;;;27.88;15.88;;;;;;;;;;5095503;28;20408;-63
2024/03/01 08:05:42;;;;;;;30.10;16.55;;;;;;;;;;5095945;28;20024;-64
2024/03/01 08:08:08;;;;;;;34.65;17.50;;;;;;;;;;5095984;28;20060;-61
2024/03/01 08:10:34;;;;;;;31.00;18.02;;;;;;;;;;5095434;28;20020;-62
2024/03/01 08:13:01;;;;;;;25.58;16.05;;;;;;;;;;5102658;28;20027;-60
2024/03/01 08:15:29;;;;;;;31.27;15.43;;;;;;;;;;5107856;27;20032;-64
2024/03/01 08:17:55;;;;;;;37.30;17.45;;;;;;;;;;5094956;28;20330;-61
2024/03/01 08:20:36;;;;;;;35.42;18.27;;;;;;;;;;5095155;28;20024;-63
2024/03/01 08:23:02;;;;;;;36.72;18.88;;;;;;;;;;5095115;28;20028;-62
2024/03/01 08:25:27;;;;;;;37.30;19.30;;;;;;;;;;5096089;28;20027;-60
2024/03/01 08:27:56;;;;;;;36.22;18.95;;;;;;;;;;5095237;28;20530;-61
2024/03/01 08:30:34;;;;;;;33.50;19.05;;;;;;;;;;5094802;28;20016;-62
2024/03/01 08:32:59;;;;;;;39.15;20.02;;;;;;;;;;5094785;28;20028;-61
2024/03/01 08:35:25;;;;;;;37.50;20.48;;;;;;;;;;5095093;28;20027;-62
2024/03/01 08:37:51;;;;;;;41.42;21.23;;;;;;;;;;5090821;28;20454;-65
2024/03/01 08:40:45;;;;;;;39.40;21.00;;;;;;;;;;5089754;28;20024;-65
2024/03/01 08:43:11;;;;;;;37.75;21.30;;;;;;;;;;5090043;28;20048;-66
2024/03/01 08:45:42;;;;;;;45.55;22.65;;;;;;;;;;5084046;28;20024;-65
2024/03/01 08:48:12;;;;;;;43.70;22.45;;;;;;;;;;5093107;28;20535;-65
2024/03/01 08:50:47;;;;;;;40.47;22.33;;;;;;;;;;5094168;28;20089;-65
2024/03/01 08:53:33;;;;;;;42.72;22.77;;;;;;;;;;5088049;28;20040;-66
2024/03/01 08:55:58;;;;;;;39.95;22.27;;;;;;;;;;5073574;28;20103;-63
2024/03/01 08:58:25;;;;;;;41.17;21.95;;;;;;;;;;5088231;28;20415;-64
2024/03/01 09:00:53;;;;;;;36.70;22.08;;;;;;;;;;5090194;28;20031;-65
2024/03/01 09:03:24;;;;;;;38.70;22.30;;;;;;;;;;5094505;28;20036;-65
2024/03/01 09:05:53;;;;;;;41.90;23.92;;;;;;;;;;5081624;28;20024;-65
2024/03/01 09:08:25;;;;;;;46.28;25.63;;;;;;;;;;5084375;28;20113;-63
2024/03/01 09:10:52;;;;;;;41.10;23.35;;;;;;;;;;5077523;28;20101;-64
2024/03/01 09:13:18;;;;;;;43.65;25.45;;;;;;;;;;5096262;28;20093;-65
2024/03/01 09:15:44;;;;;;;35.42;23.55;;;;;;;;;;5093512;28;20062;-67
2024/03/01 09:18:22;;;;;;;41.17;24.13;;;;;;;;;;5101661;28;20015;-67
2024/03/01 09:20:49;;;;;;;34.95;22.92;;;;;;;;;;5107077;28;20032;-65
2024/03/01 09:23:14;;;;;;;46.40;25.27;;;;;;;;;;5082374;28;20396;-66
2024/03/01 09:25:43;;;;;;;40.13;23.33;;;;;;;;;;5089578;28;20116;-64
2024/03/01 09:28:09;;;;;;;40.25;23.00;;;;;;;;;;5077226;28;20400;-63
2024/03/01 09:30:35;;;;;;;36.65;22.33;;;;;;;;;;5091844;28;20148;-64
2024/03/01 09:33:00;;;;;;;36.30;21.80;;;;;;;;;;5095486;28;20028;-62
2024/03/01 09:35:26;;;;;;;36.05;22.50;;;;;;;;;;5092951;28;20020;-63
2024/03/01 09:37:52;;;;;;;41.15;23.98;;;;;;;;;;5091429;28;20016;-63
2024/03/01 09:40:32;;;;;;;46.67;24.67;;;;;;;;;;5092144;28;20020;-64
2024/03/01 09:43:05;;;;;;;44.60;26.55;;;;;;;;;;5092470;28;20067;-65
2024/03/01 09:45:47;;;;;;;40.63;26.08;;;;;;;;;;5090894;28;20111;-64
2024/03/01 09:48:24;;;;;;;46.17;26.83;;;;;;;;;;5091506;28;20020;-64
2024/03/01 09:50:50;;;;;;;43.17;27.05;;;;;;;;;;5097095;28;20024;-64
2024/03/01 09:53:34;;;;;;;45.25;26.92;;;;;;;;;;5092083;28;20058;-63
2024/03/01 09:56:07;;;;;;;37.97;25.05;;;;;;;;;;5092261;28;20020;-64
2024/03/01 09:58:36;;;;;;;42.20;26.65;;;;;;;;;;5093818;28;20023;-66
2024/03/01 10:01:17;;;;;;;49.42;26.77;;;;;;;;;;5093148;28;20024;-60
2024/03/01 10:03:50;;;;;;;47.65;27.20;;;;;;;;;;5092343;28;20024;-65
2024/03/01 10:06:24;;;;;;;45.65;26.80;;;;;;;;;;5092731;28;20024;-63
2024/03/01 10:09:13;;;;;;;41.70;26.90;;;;;;;;;;5092340;28;20100;-61
2024/03/01 10:11:46;;;;;;;46.92;28.00;;;;;;;;;;5073154;28;20344;-64
2024/03/01 10:14:12;;;;;;;46.13;26.95;;;;;;;;;;5111406;28;20045;-62
2024/03/01 10:16:49;;;;;;;48.47;26.65;;;;;;;;;;5112315;28;20426;-64
2024/03/01 10:19:33;;;;;;;48.95;27.80;;;;;;;;;;5112812;28;20364;-63
2024/03/01 10:22:10;;;;;;;44.03;26.27;;;;;;;;;;5107251;28;20085;-63
2024/03/01 10:24:42;;;;;;;43.60;25.80;;;;;;;;;;5091467;28;20027;-64
2024/03/01 10:27:37;;;;;;;44.20;25.55;;;;;;;;;;5092989;28;20024;-62
2024/03/01 10:30:05;;;;;;;46.25;26.63;;;;;;;;;;5062739;28;20510;-62
2024/03/01 10:32:30;;;;;;;43.95;25.77;;;;;;;;;;5072143;28;20068;-62
2024/03/01 10:35:16;;;;;;;44.67;26.25;;;;;;;;;;5071881;28;20422;-62
2024/03/01 10:37:41;;;;;;;41.75;25.90;;;;;;;;;;5077204;28;20358;-62
2024/03/01 10:40:07;;;;;;;43.40;25.67;;;;;;;;;;5112003;28;20041;-63
2024/03/01 10:42:35;;;;;;;42.72;24.90;;;;;;;;;;5108459;28;20031;-62
2024/03/01 10:45:05;;;;;;;39.70;24.38;;;;;;;;;;5092283;28;20081;-63
2024/03/01 10:47:32;;;;;;;36.85;25.33;;;;;;;;;;5095097;28;20036;-65
2024/03/01 10:50:03;;;;;;;44.30;24.92;;;;;;;;;;5112372;28;20019;-62
2024/03/01 10:52:33;;;;;;;38.80;25.77;;;;;;;;;;5112683;28;20043;-63
2024/03/01 10:54:58;;;;;;;46.08;25.95;;;;;;;;;;5094598;28;20118;-63
2024/03/01 10:57:25;;;;;;;54.72;27.60;;;;;;;;;;5095345;28;20534;-68
2024/03/01 10:59:53;;;;;;;44.72;25.92;;;;;;;;;;5103358;28;20028;-63
2024/03/01 11:02:21;;;;;;;40.67;26.83;;;;;;;;;;5091247;28;20505;-71
2024/03/01 11:04:56;;;;;;;45.33;26.67;;;;;;;;;;5090482;28;20085;-64
2024/03/01 11:07:34;;;;;;;46.53;26.67;;;;;;;;;;5093022;28;20529;-70
2024/03/01 11:10:08;;;;;;;48.00;26.58;;;;;;;;;;5092182;28;20032;-64
2024/03/01 11:12:34;;;;;;;44.17;25.70;;;;;;;;;;5091362;28;20124;-64
2024/03/01 11:15:04;;;;;;;46.35;27.15;;;;;;;;;;5091891;28;20031;-65
2024/03/01 11:17:31;;;;;;;42.20;26.63;;;;;;;;;;5092282;28;20115;-65
2024/03/01 11:20:03;;;;;;;47.10;26.95;;;;;;;;;;5091679;28;20438;-64
2024/03/01 11:22:29;;;;;;;45.15;26.27;;;;;;;;;;5096156;28;20323;-64
2024/03/01 11:25:06;;;;;;;45.03;27.90;;;;;;;;;;5095448;28;20085;-65
2024/03/01 11:27:33;;;;;;;43.92;27.15;;;;;;;;;;5095863;28;20027;-63
2024/03/01 11:30:05;;;;;;;45.85;25.95;;;;;;;;;;5096608;28;20024;-65
2024/03/01 11:32:32;;;;;;;45.95;26.00;;;;;;;;;;5095792;28;20107;-64
2024/03/01 11:35:09;;;;;;;46.88;25.27;;;;;;;;;;5096087;28;20036;-64
2024/03/01 11:37:41;;;;;;;37.20;25.30;;;;;;;;;;5095691;28;20028;-64
2024/03/01 11:40:34;;;;;;;43.25;26.65;;;;;;;;;;5094728;28;20409;-65
2024/03/01 11:43:02;;;;;;;39.80;24.98;;;;;;;;;;5065029;28;20067;-65
2024/03/01 11:45:39;;;;;;;44.40;26.65;;;;;;;;;;5096425;28;20430;-65
2024/03/01 11:48:13;;;;;;;49.28;27.75;;;;;;;;;;5096429;28;20071;-64
2024/03/01 11:50:57;;;;;;;41.50;26.67;;;;;;;;;;5095468;28;20124;-65
2024/03/01 11:53:28;;;;;;;43.72;25.45;;;;;;;;;;5095162;28;20052;-64
2024/03/01 11:56:09;;;;;;;46.92;26.70;;;;;;;;;;5095989;28;20035;-65
2024/03/01 11:58:46;;;;;;;43.80;25.90;;;;;;;;;;5095646;28;20130;-65
2024/03/01 12:01:15;;;;;;;43.50;26.15;;;;;;;;;;5095349;28;20027;-63
2024/03/01 12:03:59;;;;;;;50.10;25.85;;;;;;;;;;5095219;28;20347;-64
2024/03/01 12:06:30;;;;;;;38.72;25.40;;;;;;;;;;5095898;28;20031;-65
2024/03/01 12:08:56;;;;;;;42.00;25.55;;;;;;;;;;5095063;28;20034;-64
2024/03/01 12:11:30;;;;;;;50.88;26.95;;;;;;;;;;5095029;28;20032;-64
2024/03/01 12:13:57;;;;;;;47.50;25.70;;;;;;;;;;5095183;28;20028;-66
2024/03/01 12:16:23;;;;;;;46.53;26.65;;;;;;;;;;5095887;28;20023;-65
2024/03/01 12:18:58;;;;;;;39.28;24.58;;;;;;;;;;5095182;28;20016;-64
2024/03/01 12:21:26;;;;;;;45.05;25.92;;;;;;;;;;5094597;28;20063;-65
2024/03/01 12:24:16;;;;;;;46.65;26.02;;;;;;;;;;5093582;28;20539;-63
2024/03/01 12:27:00;;;;;;;52.35;26.00;;;;;;;;;;5094654;28;20023;-64
2024/03/01 12:29:44;;;;;;;47.15;25.95;;;;;;;;;;5094848;28;20020;-63
2024/03/01 12:32:20;;;;;;;45.72;26.35;;;;;;;;;;5093255;28;20458;-67
2024/03/01 12:34:45;;;;;;;42.42;27.05;;;;;;;;;;5092737;28;20024;-65
2024/03/01 12:37:29;;;;;;;49.72;28.00;;;;;;;;;;5093390;28;20035;-64
2024/03/01 12:40:04;;;;;;;47.60;27.52;;;;;;;;;;5093552;28;20020;-64
2024/03/01 12:42:36;;;;;;;51.42;29.08;;;;;;;;;;5093882;28;20127;-64
2024/03/01 12:45:31;;;;;;;58.22;31.20;;;;;;;;;;5094323;28;20445;-66
2024/03/01 12:48:18;;;;;;;53.45;30.80;;;;;;;;;;5065048;28;20446;-65
2024/03/01 12:50:56;;;;;;;54.08;30.27;;;;;;;;;;5094406;28;20434;-64
2024/03/01 12:53:28;;;;;;;55.83;31.55;;;;;;;;;;5094301;28;20036;-65
2024/03/01 12:56:13;;;;;;;49.65;31.42;;;;;;;;;;5094495;28;20020;-65
2024/03/01 12:58:51;;;;;;;56.50;30.55;;;;;;;;;;5094494;28;20093;-65
2024/03/01 13:01:35;;;;;;;53.05;30.40;;;;;;;;;;5093864;28;20024;-64
2024/03/01 13:04:10;;;;;;;52.63;30.40;;;;;;;;;;5095019;28;20369;-64
2024/03/01 13:06:35;;;;;;;51.85;29.83;;;;;;;;;;5094256;28;20518;-63
2024/03/01 13:09:14;;;;;;;49.80;30.40;;;;;;;;;;5093982;28;20095;-63
2024/03/01 13:11:42;;;;;;;51.85;28.95;;;;;;;;;;5094327;28;20027;-64
2024/03/01 13:14:20;;;;;;;49.13;29.52;;;;;;;;;;5094644;28;20090;-64
2024/03/01 13:16:47;;;;;;;48.58;30.00;;;;;;;;;;5093694;28;20020;-65
2024/03/01 13:19:15;;;;;;;52.47;29.85;;;;;;;;;;5094186;28;20091;-63
2024/03/01 13:21:47;;;;;;;54.78;31.40;;;;;;;;;;5094242;28;20123;-64
2024/03/01 13:24:16;;;;;;;50.58;30.23;;;;;;;;;;5094376;28;20081;-64
2024/03/01 13:26:42;;;;;;;54.70;31.42;;;;;;;;;;5093111;28;20020;-63
2024/03/01 13:29:13;;;;;;;54.53;32.17;;;;;;;;;;5093717;28;20074;-65
2024/03/01 13:31:41;;;;;;;48.90;31.48;;;;;;;;;;5094269;28;20039;-63
2024/03/01 13:34:08;;;;;;;52.85;31.42;;;;;;;;;;5094226;28;20040;-64
2024/03/01 13:36:35;;;;;;;53.22;32.40;;;;;;;;;;5093419;28;20020;-64
2024/03/01 13:39:05;;;;;;;53.83;33.63;;;;;;;;;;5093804;28;20020;-65
2024/03/01 13:41:32;;;;;;;53.92;33.00;;;;;;;;;;5094548;28;20082;-65
2024/03/01 13:44:16;;;;;;;59.17;33.25;;;;;;;;;;5094301;28;20016;-65
2024/03/01 13:46:41;;;;;;;51.95;33.13;;;;;;;;;;5093017;28;20024;-64
2024/03/01 13:49:07;;;;;;;56.20;33.83;;;;;;;;;;5093320;28;20076;-63
2024/03/01 13:51:36;;;;;;;60.33;33.92;;;;;;;;;;5094025;28;20051;-63
2024/03/01 13:54:03;;;;;;;54.55;33.10;;;;;;;;;;5093779;28;20040;-63
2024/03/01 13:56:29;;;;;;;62.53;34.90;;;;;;;;;;5092929;28;20027;-63
2024/03/01 13:58:55;;;;;;;60.63;35.05;;;;;;;;;;5093124;28;20363;-64
2024/03/01 14:01:24;;;;;;;58.53;34.58;;;;;;;;;;5093738;28;20041;-64
2024/03/01 14:03:52;;;;;;;61.28;34.53;;;;;;;;;;5093513;28;20081;-65
2024/03/01 14:06:21;;;;;;;55.40;34.35;;;;;;;;;;5092910;28;20096;-64
2024/03/01 14:08:47;;;;;;;59.22;33.53;;;;;;;;;;5092076;28;20046;-65
2024/03/01 14:11:12;;;;;;;58.38;34.40;;;;;;;;;;5093010;28;20063;-64
2024/03/01 14:13:38;;;;;;;63.72;36.10;;;;;;;;;;5092850;28;20040;-64
2024/03/01 14:16:05;;;;;;;58.65;35.50;;;;;;;;;;5092731;28;20346;-62
2024/03/01 14:18:31;;;;;;;55.95;35.05;;;;;;;;;;5093130;28;20361;-65
2024/03/01 14:20:56;;;;;;;58.30;35.10;;;;;;;;;;5092512;28;20033;-64
2024/03/01 14:23:23;;;;;;;58.35;34.78;;;;;;;;;;5092499;28;20028;-63